Resolute — WTW2234 — position and weather

sailwx.info

Track history (hours):
 
Tides and Currents Weather Stations Pressure Air Temp Water Temp Dewpoint Dewpoint Depression Visibility Wind Speed Wind Dir Waves Ship Positions

Resolute

Owner: Providence Steamboat Co., PROVIDENCE, RI. More information available from US FCC via Universal Licensing System and Coast Guard Vessel Documentation Center.

Last reported at 2016-Apr-30 04:30 UTC. Time now 2016-Apr-30 05:12 UTC.
Position N 40°27' W 074°03'.

Length 30 m; draft 4 m.

Type: Tug. MMSI: 367091630.

Date/timePositionNaut miles runAvg speedWind from/ knotsBaromVisibWave heightAir tempDewpointWater temp
2016-Apr-30 04:30N 40°27' W 074°03'0 0.0
2016-Apr-30 03:29N 40°27' W 074°03'0 0.0
2016-Apr-30 02:29N 40°27' W 074°03'0 0.0
2016-Apr-30 01:33N 40°27' W 074°03'0 0.0
2016-Apr-30 00:33N 40°27' W 074°03'0 0.0
2016-Apr-29 23:26N 40°27' W 074°03'0 0.0
2016-Apr-29 22:33N 40°27' W 074°03'0 0.0
2016-Apr-29 21:33N 40°27' W 074°03'0 0.0
2016-Apr-29 20:33N 40°27' W 074°03'0 0.0
2016-Apr-29 19:33N 40°27' W 074°03'0 0.0
2016-Apr-29 18:32N 40°27' W 074°03'0 0.0
2016-Apr-29 17:31N 40°27' W 074°03'0 0.0
2016-Apr-29 16:33N 40°27' W 074°03'0 0.0
2016-Apr-29 15:33N 40°27' W 074°03'0 0.0
2016-Apr-29 14:28N 40°27' W 074°03'0 0.2
2016-Apr-29 13:33N 40°27' W 074°03'2 2.3
2016-Apr-29 12:33N 40°29' W 074°01'2 1.7
2016-Apr-29 11:31N 40°28' W 074°03'3 3.3
2016-Apr-29 10:31N 40°31' W 074°03'8 8.4
2016-Apr-29 09:33N 40°39' W 074°06'3 1.0
2016-Apr-29 06:23N 40°38' W 074°10'1 0.4
2016-Apr-29 04:33N 40°39' W 074°09'4 4.1
2016-Apr-29 03:33N 40°38' W 074°04'5 4.4
2016-Apr-29 02:29N 40°38' W 074°10'0 0.0
2016-Apr-28 20:13N 40°38' W 074°10'0 0.0
2016-Apr-28 19:33N 40°38' W 074°10'0 0.0
2016-Apr-28 18:26N 40°38' W 074°10'1 1.1
2016-Apr-28 17:26N 40°39' W 074°09'0 0.4
2016-Apr-28 16:32N 40°40' W 074°09'0 0.0
2016-Apr-28 15:25N 40°40' W 074°09'0 0.0
2016-Apr-28 14:16N 40°40' W 074°09'0 0.0
2016-Apr-28 13:32N 40°40' W 074°09'4 3.7
2016-Apr-28 12:33N 40°40' W 074°04'0 0.1
2016-Apr-28 11:34N 40°40' W 074°04'0 0.0
2016-Apr-28 10:33N 40°40' W 074°04'0 0.1
2016-Apr-28 09:33N 40°40' W 074°04'0 0.0
2016-Apr-28 08:33N 40°40' W 074°04'5 4.5
2016-Apr-28 07:32N 40°39' W 074°10'0 0.0
2016-Apr-28 06:33N 40°39' W 074°10'2 1.1
2016-Apr-28 04:32N 40°37' W 074°12'1 0.1
2016-Apr-27 20:18N 40°36' W 074°12'3 3.0
2016-Apr-27 19:21N 40°38' W 074°10'0 0.0
2016-Apr-27 17:21N 40°38' W 074°10'0 0.0
2016-Apr-27 16:33N 40°38' W 074°10'0 0.0
2016-Apr-27 15:33N 40°38' W 074°10'4 4.3
2016-Apr-27 14:34N 40°39' W 074°04'0 0.3
2016-Apr-27 13:33N 40°39' W 074°04'0 0.0
2016-Apr-27 12:33N 40°39' W 074°04'2 2.3
2016-Apr-27 11:33N 40°39' W 074°07'2 1.8
2016-Apr-27 10:28N 40°38' W 074°10'2 2.4
2016-Apr-27 09:33N 40°40' W 074°08'2 2.0
2016-Apr-27 08:33N 40°38' W 074°09'0 0.1
2016-Apr-27 05:14N 40°38' W 074°10'1 0.4
2016-Apr-27 03:29N 40°39' W 074°11'5 5.6
2016-Apr-27 02:33N 40°39' W 074°04'2 1.6
2016-Apr-27 01:34N 40°37' W 074°03'5 2.3
2016-Apr-26 23:23N 40°38' W 074°10'1 1.5
2016-Apr-26 22:33N 40°39' W 074°09'1 0.9
2016-Apr-26 21:33N 40°39' W 074°09'1 0.6
2016-Apr-26 20:05N 40°38' W 074°10'0 0.7
2016-Apr-26 19:34N 40°39' W 074°10'2 1.2
2016-Apr-26 17:33N 40°37' W 074°12'5 4.9
2016-Apr-26 16:33N 40°39' W 074°06'3 2.7
2016-Apr-26 15:33N 40°39' W 074°03'2 2.0
2016-Apr-26 14:34N 40°39' W 074°05'3 1.0
2016-Apr-26 11:03N 40°38' W 074°10'2 4.2
2016-Apr-26 10:33N 40°39' W 074°07'0 0.3
2016-Apr-26 09:34N 40°39' W 074°07'1 1.1
2016-Apr-26 08:33N 40°39' W 074°08'1 0.6
2016-Apr-26 06:27N 40°38' W 074°10'0 0.0
2016-Apr-26 05:34N 40°38' W 074°10'2 0.3
2016-Apr-25 22:33N 40°40' W 074°08'1 1.5
2016-Apr-25 21:33N 40°39' W 074°09'1 1.4
2016-Apr-25 20:33N 40°39' W 074°07'2 2.0
2016-Apr-25 19:33N 40°38' W 074°10'2 1.9
2016-Apr-25 18:33N 40°40' W 074°09'1 1.0
2016-Apr-25 17:33N 40°39' W 074°09'1 1.0
2016-Apr-25 16:32N 40°38' W 074°10'0 0.0
2016-Apr-25 15:29N 40°38' W 074°10'0 0.0
2016-Apr-25 14:29N 40°38' W 074°10'0 0.0
2016-Apr-25 13:32N 40°38' W 074°10'0 0.0
2016-Apr-25 12:33N 40°38' W 074°10'0 0.0
2016-Apr-25 11:29N 40°38' W 074°10'0 0.5
2016-Apr-25 10:33N 40°39' W 074°10'6 5.6
2016-Apr-25 09:33N 40°38' W 074°03'5 0.7
2016-Apr-25 02:23N 40°38' W 074°10'2 2.8
2016-Apr-25 01:33N 40°41' W 074°08'0 0.5
2016-Apr-25 00:34N 40°40' W 074°08'2 2.4
2016-Apr-24 23:33N 40°39' W 074°06'0 0.0
2016-Apr-24 22:34N 40°39' W 074°06'0 0.0
2016-Apr-24 21:26N 40°39' W 074°06'0 0.2
2016-Apr-24 20:15N 40°39' W 074°06'3 3.9
2016-Apr-24 19:28N 40°38' W 074°10'0 0.0
2016-Apr-24 13:16N 40°38' W 074°10'0 0.0
2016-Apr-24 12:19N 40°38' W 074°10'2 2.7
2016-Apr-24 11:33N 40°40' W 074°08'2 1.4
2016-Apr-24 10:16N 40°39' W 074°07'4 5.0
2016-Apr-24 09:33N 40°37' W 074°03'3 2.2
2016-Apr-24 08:18N 40°39' W 074°06'2 2.8
2016-Apr-24 07:33N 40°38' W 074°03'5 4.9
2016-Apr-24 06:33N 40°38' W 074°10'0 0.0
2016-Apr-24 04:14N 40°38' W 074°10'0 0.0
2016-Apr-24 03:20N 40°38' W 074°10'2 1.3
2016-Apr-24 02:06N 40°38' W 074°12'2 3.9
2016-Apr-24 01:33N 40°39' W 074°09'5 5.0
2016-Apr-24 00:33N 40°37' W 074°03'3 2.5
2016-Apr-23 23:33N 40°39' W 074°05'0 0.0
2016-Apr-23 22:33N 40°39' W 074°05'0 0.4
2016-Apr-23 21:33N 40°39' W 074°06'2 2.3
2016-Apr-23 20:33N 40°40' W 074°09'2 2.3
2016-Apr-23 19:34N 40°42' W 074°09'0 0.0
2016-Apr-23 18:19N 40°42' W 074°09'2 3.1
2016-Apr-23 17:33N 40°39' W 074°09'1 1.2
2016-Apr-23 16:32N 40°38' W 074°10'0 0.0
2016-Apr-23 15:33N 40°38' W 074°10'0 0.0
2016-Apr-23 14:32N 40°38' W 074°10'0 0.0
2016-Apr-23 13:33N 40°38' W 074°10'0 0.0
2016-Apr-23 12:24N 40°38' W 074°10'0 0.0
2016-Apr-23 11:29N 40°38' W 074°10'0 0.0
2016-Apr-23 10:31N 40°38' W 074°10'2 0.8
2016-Apr-23 07:33N 40°40' W 074°08'0 0.5
2016-Apr-23 06:33N 40°40' W 074°08'2 2.4
2016-Apr-23 05:34N 40°39' W 074°06'0 0.0
2016-Apr-23 04:33N 40°39' W 074°06'0 0.0
2016-Apr-23 03:33N 40°39' W 074°06'1 0.7
2016-Apr-23 02:29N 40°39' W 074°07'0 0.1
2016-Apr-23 01:33N 40°39' W 074°07'3 2.5
2016-Apr-23 00:33N 40°38' W 074°04'5 4.8
2016-Apr-22 23:33N 40°38' W 074°10'0 0.0
2016-Apr-22 22:33N 40°38' W 074°10'0 0.0
2016-Apr-22 20:31N 40°38' W 074°10'0 0.0
2016-Apr-22 17:31N 40°38' W 074°10'0 0.0
2016-Apr-22 16:33N 40°38' W 074°10'2 2.4
2016-Apr-22 15:33N 40°41' W 074°08'5 2.3
2016-Apr-22 13:32N 40°37' W 074°12'5 5.0
2016-Apr-22 12:33N 40°39' W 074°06'2 2.0
2016-Apr-22 11:33N 40°38' W 074°04'4 1.4
2016-Apr-22 08:32N 40°38' W 074°10'1 1.5
2016-Apr-22 07:33N 40°40' W 074°09'2 0.5
2016-Apr-22 04:23N 40°38' W 074°10'0 0.0
2016-Apr-22 03:24N 40°38' W 074°10'0 0.1
2016-Apr-22 00:27N 40°39' W 074°09'5 5.7
2016-Apr-21 23:33N 40°37' W 074°03'3 2.5
2016-Apr-21 22:33N 40°39' W 074°05'4 3.3
2016-Apr-21 21:29N 40°38' W 074°10'0 0.0
2016-Apr-21 20:29N 40°38' W 074°10'0 0.0
2016-Apr-21 19:32N 40°38' W 074°10'0 0.0
2016-Apr-21 18:33N 40°38' W 074°10'0 0.0
2016-Apr-21 17:33N 40°38' W 074°10'3 2.7
2016-Apr-21 16:33N 40°39' W 074°06'2 2.3
2016-Apr-21 15:33N 40°38' W 074°09'1 0.6
2016-Apr-21 14:33N 40°39' W 074°09'5 4.6
2016-Apr-21 13:33N 40°37' W 074°03'3 2.9
2016-Apr-21 12:33N 40°39' W 074°06'2 2.3
2016-Apr-21 11:34N 40°41' W 074°08'2 1.8
2016-Apr-21 10:33N 40°42' W 074°07'0 0.0
2016-Apr-21 09:33N 40°42' W 074°07'0 0.2
2016-Apr-21 08:33N 40°42' W 074°07'4 1.1
2016-Apr-21 04:34N 40°38' W 074°10'1 1.0
2016-Apr-21 03:33N 40°39' W 074°08'4 4.0
2016-Apr-21 02:33N 40°41' W 074°04'3 2.7
2016-Apr-21 01:34N 40°39' W 074°03'4 4.2
2016-Apr-21 00:30N 40°39' W 074°09'2 2.4
2016-Apr-20 23:33N 40°41' W 074°09'1 0.9
2016-Apr-20 22:33N 40°40' W 074°08'2 2.0
2016-Apr-20 21:32N 40°39' W 074°09'5 4.7
2016-Apr-20 20:33N 40°38' W 074°03'6 5.6
2016-Apr-20 19:33N 40°42' W 073°58'1 1.2
2016-Apr-20 18:34N 40°42' W 073°60'8 8.4
2016-Apr-20 17:34N 40°39' W 074°10'0 0.1
2016-Apr-20 16:33N 40°38' W 074°10'0 0.4
2016-Apr-20 15:33N 40°38' W 074°09'4 3.8
2016-Apr-20 14:33N 40°39' W 074°04'4 4.0
2016-Apr-20 13:33N 40°35' W 074°02'0 0.2
2016-Apr-20 12:33N 40°35' W 074°02'6 5.9
2016-Apr-20 11:33N 40°39' W 074°08'1 0.8
2016-Apr-20 10:31N 40°39' W 074°09'5 4.8
2016-Apr-20 09:33N 40°38' W 074°03'0 0.1
2016-Apr-20 08:34N 40°38' W 074°03'7 6.8
2016-Apr-20 07:32N 40°38' W 074°12'1 1.1
2016-Apr-20 06:31N 40°37' W 074°12'3 2.5
2016-Apr-20 05:27N 40°38' W 074°10'0 0.0
2016-Apr-20 04:33N 40°38' W 074°10'  
Track history (hours):
 
Tides and Currents Weather Stations Pressure Air Temp Water Temp Dewpoint Dewpoint Depression Visibility Wind Speed Wind Dir Waves Ship Positions

Resolute

Owner: Providence Steamboat Co., PROVIDENCE, RI. More information available from US FCC via Universal Licensing System and Coast Guard Vessel Documentation Center.

Last reported at 2016-Apr-30 04:30 UTC. Time now 2016-Apr-30 05:12 UTC.
Position N 40°27' W 074°03'.

Length 30 m; draft 4 m.

Type: Tug. MMSI: 367091630.

Date/timePositionNaut miles runAvg speedWind from/ knotsBaromVisibWave heightAir tempDewpointWater temp
2016-Apr-30 04:30N 40°27' W 074°03'0 0.0
2016-Apr-30 03:29N 40°27' W 074°03'0 0.0
2016-Apr-30 02:29N 40°27' W 074°03'0 0.0
2016-Apr-30 01:33N 40°27' W 074°03'0 0.0
2016-Apr-30 00:33N 40°27' W 074°03'0 0.0
2016-Apr-29 23:26N 40°27' W 074°03'0 0.0
2016-Apr-29 22:33N 40°27' W 074°03'0 0.0
2016-Apr-29 21:33N 40°27' W 074°03'0 0.0
2016-Apr-29 20:33N 40°27' W 074°03'0 0.0
2016-Apr-29 19:33N 40°27' W 074°03'0 0.0
2016-Apr-29 18:32N 40°27' W 074°03'0 0.0
2016-Apr-29 17:31N 40°27' W 074°03'0 0.0
2016-Apr-29 16:33N 40°27' W 074°03'0 0.0
2016-Apr-29 15:33N 40°27' W 074°03'0 0.0
2016-Apr-29 14:28N 40°27' W 074°03'0 0.2
2016-Apr-29 13:33N 40°27' W 074°03'2 2.3
2016-Apr-29 12:33N 40°29' W 074°01'2 1.7
2016-Apr-29 11:31N 40°28' W 074°03'3 3.3
2016-Apr-29 10:31N 40°31' W 074°03'8 8.4
2016-Apr-29 09:33N 40°39' W 074°06'3 1.0
2016-Apr-29 06:23N 40°38' W 074°10'1 0.4
2016-Apr-29 04:33N 40°39' W 074°09'4 4.1
2016-Apr-29 03:33N 40°38' W 074°04'5 4.4
2016-Apr-29 02:29N 40°38' W 074°10'0 0.0
2016-Apr-28 20:13N 40°38' W 074°10'0 0.0
2016-Apr-28 19:33N 40°38' W 074°10'0 0.0
2016-Apr-28 18:26N 40°38' W 074°10'1 1.1
2016-Apr-28 17:26N 40°39' W 074°09'0 0.4
2016-Apr-28 16:32N 40°40' W 074°09'0 0.0
2016-Apr-28 15:25N 40°40' W 074°09'0 0.0
2016-Apr-28 14:16N 40°40' W 074°09'0 0.0
2016-Apr-28 13:32N 40°40' W 074°09'4 3.7
2016-Apr-28 12:33N 40°40' W 074°04'0 0.1
2016-Apr-28 11:34N 40°40' W 074°04'0 0.0
2016-Apr-28 10:33N 40°40' W 074°04'0 0.1
2016-Apr-28 09:33N 40°40' W 074°04'0 0.0
2016-Apr-28 08:33N 40°40' W 074°04'5 4.5
2016-Apr-28 07:32N 40°39' W 074°10'0 0.0
2016-Apr-28 06:33N 40°39' W 074°10'2 1.1
2016-Apr-28 04:32N 40°37' W 074°12'1 0.1
2016-Apr-27 20:18N 40°36' W 074°12'3 3.0
2016-Apr-27 19:21N 40°38' W 074°10'0 0.0
2016-Apr-27 17:21N 40°38' W 074°10'0 0.0
2016-Apr-27 16:33N 40°38' W 074°10'0 0.0
2016-Apr-27 15:33N 40°38' W 074°10'4 4.3
2016-Apr-27 14:34N 40°39' W 074°04'0 0.3
2016-Apr-27 13:33N 40°39' W 074°04'0 0.0
2016-Apr-27 12:33N 40°39' W 074°04'2 2.3
2016-Apr-27 11:33N 40°39' W 074°07'2 1.8
2016-Apr-27 10:28N 40°38' W 074°10'2 2.4
2016-Apr-27 09:33N 40°40' W 074°08'2 2.0
2016-Apr-27 08:33N 40°38' W 074°09'0 0.1
2016-Apr-27 05:14N 40°38' W 074°10'1 0.4
2016-Apr-27 03:29N 40°39' W 074°11'5 5.6
2016-Apr-27 02:33N 40°39' W 074°04'2 1.6
2016-Apr-27 01:34N 40°37' W 074°03'5 2.3
2016-Apr-26 23:23N 40°38' W 074°10'1 1.5
2016-Apr-26 22:33N 40°39' W 074°09'1 0.9
2016-Apr-26 21:33N 40°39' W 074°09'1 0.6
2016-Apr-26 20:05N 40°38' W 074°10'0 0.7
2016-Apr-26 19:34N 40°39' W 074°10'2 1.2
2016-Apr-26 17:33N 40°37' W 074°12'5 4.9
2016-Apr-26 16:33N 40°39' W 074°06'3 2.7
2016-Apr-26 15:33N 40°39' W 074°03'2 2.0
2016-Apr-26 14:34N 40°39' W 074°05'3 1.0
2016-Apr-26 11:03N 40°38' W 074°10'2 4.2
2016-Apr-26 10:33N 40°39' W 074°07'0 0.3
2016-Apr-26 09:34N 40°39' W 074°07'1 1.1
2016-Apr-26 08:33N 40°39' W 074°08'1 0.6
2016-Apr-26 06:27N 40°38' W 074°10'0 0.0
2016-Apr-26 05:34N 40°38' W 074°10'2 0.3
2016-Apr-25 22:33N 40°40' W 074°08'1 1.5
2016-Apr-25 21:33N 40°39' W 074°09'1 1.4
2016-Apr-25 20:33N 40°39' W 074°07'2 2.0
2016-Apr-25 19:33N 40°38' W 074°10'2 1.9
2016-Apr-25 18:33N 40°40' W 074°09'1 1.0
2016-Apr-25 17:33N 40°39' W 074°09'1 1.0
2016-Apr-25 16:32N 40°38' W 074°10'0 0.0
2016-Apr-25 15:29N 40°38' W 074°10'0 0.0
2016-Apr-25 14:29N 40°38' W 074°10'0 0.0
2016-Apr-25 13:32N 40°38' W 074°10'0 0.0
2016-Apr-25 12:33N 40°38' W 074°10'0 0.0
2016-Apr-25 11:29N 40°38' W 074°10'0 0.5
2016-Apr-25 10:33N 40°39' W 074°10'6 5.6
2016-Apr-25 09:33N 40°38' W 074°03'5 0.7
2016-Apr-25 02:23N 40°38' W 074°10'2 2.8
2016-Apr-25 01:33N 40°41' W 074°08'0 0.5
2016-Apr-25 00:34N 40°40' W 074°08'2 2.4
2016-Apr-24 23:33N 40°39' W 074°06'0 0.0
2016-Apr-24 22:34N 40°39' W 074°06'0 0.0
2016-Apr-24 21:26N 40°39' W 074°06'0 0.2
2016-Apr-24 20:15N 40°39' W 074°06'3 3.9
2016-Apr-24 19:28N 40°38' W 074°10'0 0.0
2016-Apr-24 13:16N 40°38' W 074°10'0 0.0
2016-Apr-24 12:19N 40°38' W 074°10'2 2.7
2016-Apr-24 11:33N 40°40' W 074°08'2 1.4
2016-Apr-24 10:16N 40°39' W 074°07'4 5.0
2016-Apr-24 09:33N 40°37' W 074°03'3 2.2
2016-Apr-24 08:18N 40°39' W 074°06'2 2.8
2016-Apr-24 07:33N 40°38' W 074°03'5 4.9
2016-Apr-24 06:33N 40°38' W 074°10'0 0.0
2016-Apr-24 04:14N 40°38' W 074°10'0 0.0
2016-Apr-24 03:20N 40°38' W 074°10'2 1.3
2016-Apr-24 02:06N 40°38' W 074°12'2 3.9
2016-Apr-24 01:33N 40°39' W 074°09'5 5.0
2016-Apr-24 00:33N 40°37' W 074°03'3 2.5
2016-Apr-23 23:33N 40°39' W 074°05'0 0.0
2016-Apr-23 22:33N 40°39' W 074°05'0 0.4
2016-Apr-23 21:33N 40°39' W 074°06'2 2.3
2016-Apr-23 20:33N 40°40' W 074°09'2 2.3
2016-Apr-23 19:34N 40°42' W 074°09'0 0.0
2016-Apr-23 18:19N 40°42' W 074°09'2 3.1
2016-Apr-23 17:33N 40°39' W 074°09'1 1.2
2016-Apr-23 16:32N 40°38' W 074°10'0 0.0
2016-Apr-23 15:33N 40°38' W 074°10'0 0.0
2016-Apr-23 14:32N 40°38' W 074°10'0 0.0
2016-Apr-23 13:33N 40°38' W 074°10'0 0.0
2016-Apr-23 12:24N 40°38' W 074°10'0 0.0
2016-Apr-23 11:29N 40°38' W 074°10'0 0.0
2016-Apr-23 10:31N 40°38' W 074°10'2 0.8
2016-Apr-23 07:33N 40°40' W 074°08'0 0.5
2016-Apr-23 06:33N 40°40' W 074°08'2 2.4
2016-Apr-23 05:34N 40°39' W 074°06'0 0.0
2016-Apr-23 04:33N 40°39' W 074°06'0 0.0
2016-Apr-23 03:33N 40°39' W 074°06'1 0.7
2016-Apr-23 02:29N 40°39' W 074°07'0 0.1
2016-Apr-23 01:33N 40°39' W 074°07'3 2.5
2016-Apr-23 00:33N 40°38' W 074°04'5 4.8
2016-Apr-22 23:33N 40°38' W 074°10'0 0.0
2016-Apr-22 22:33N 40°38' W 074°10'0 0.0
2016-Apr-22 20:31N 40°38' W 074°10'0 0.0
2016-Apr-22 17:31N 40°38' W 074°10'0 0.0
2016-Apr-22 16:33N 40°38' W 074°10'2 2.4
2016-Apr-22 15:33N 40°41' W 074°08'5 2.3
2016-Apr-22 13:32N 40°37' W 074°12'5 5.0
2016-Apr-22 12:33N 40°39' W 074°06'2 2.0
2016-Apr-22 11:33N 40°38' W 074°04'4 1.4
2016-Apr-22 08:32N 40°38' W 074°10'1 1.5
2016-Apr-22 07:33N 40°40' W 074°09'2 0.5
2016-Apr-22 04:23N 40°38' W 074°10'0 0.0
2016-Apr-22 03:24N 40°38' W 074°10'0 0.1
2016-Apr-22 00:27N 40°39' W 074°09'5 5.7
2016-Apr-21 23:33N 40°37' W 074°03'3 2.5
2016-Apr-21 22:33N 40°39' W 074°05'4 3.3
2016-Apr-21 21:29N 40°38' W 074°10'0 0.0
2016-Apr-21 20:29N 40°38' W 074°10'0 0.0
2016-Apr-21 19:32N 40°38' W 074°10'0 0.0
2016-Apr-21 18:33N 40°38' W 074°10'0 0.0
2016-Apr-21 17:33N 40°38' W 074°10'3 2.7
2016-Apr-21 16:33N 40°39' W 074°06'2 2.3
2016-Apr-21 15:33N 40°38' W 074°09'1 0.6
2016-Apr-21 14:33N 40°39' W 074°09'5 4.6
2016-Apr-21 13:33N 40°37' W 074°03'3 2.9
2016-Apr-21 12:33N 40°39' W 074°06'2 2.3
2016-Apr-21 11:34N 40°41' W 074°08'2 1.8
2016-Apr-21 10:33N 40°42' W 074°07'0 0.0
2016-Apr-21 09:33N 40°42' W 074°07'0 0.2
2016-Apr-21 08:33N 40°42' W 074°07'4 1.1
2016-Apr-21 04:34N 40°38' W 074°10'1 1.0
2016-Apr-21 03:33N 40°39' W 074°08'4 4.0
2016-Apr-21 02:33N 40°41' W 074°04'3 2.7
2016-Apr-21 01:34N 40°39' W 074°03'4 4.2
2016-Apr-21 00:30N 40°39' W 074°09'2 2.4
2016-Apr-20 23:33N 40°41' W 074°09'1 0.9
2016-Apr-20 22:33N 40°40' W 074°08'2 2.0
2016-Apr-20 21:32N 40°39' W 074°09'5 4.7
2016-Apr-20 20:33N 40°38' W 074°03'6 5.6
2016-Apr-20 19:33N 40°42' W 073°58'1 1.2
2016-Apr-20 18:34N 40°42' W 073°60'8 8.4
2016-Apr-20 17:34N 40°39' W 074°10'0 0.1
2016-Apr-20 16:33N 40°38' W 074°10'0 0.4
2016-Apr-20 15:33N 40°38' W 074°09'4 3.8
2016-Apr-20 14:33N 40°39' W 074°04'4 4.0
2016-Apr-20 13:33N 40°35' W 074°02'0 0.2
2016-Apr-20 12:33N 40°35' W 074°02'6 5.9
2016-Apr-20 11:33N 40°39' W 074°08'1 0.8
2016-Apr-20 10:31N 40°39' W 074°09'5 4.8
2016-Apr-20 09:33N 40°38' W 074°03'0 0.1
2016-Apr-20 08:34N 40°38' W 074°03'7 6.8
2016-Apr-20 07:32N 40°38' W 074°12'1 1.1
2016-Apr-20 06:31N 40°37' W 074°12'3 2.5
2016-Apr-20 05:27N 40°38' W 074°10'0 0.0
2016-Apr-20 04:33N 40°38' W 074°10'  

Dump ship's entire track history